createdAt,value
2022-10-05T00:12:12.365Z,93.31
2022-10-05T00:31:26.565Z,93.88
2022-10-05T00:50:41.172Z,92.56
2022-10-05T01:09:55.819Z,93.66
2022-10-05T01:29:09.278Z,95.48
2022-10-05T01:48:22.545Z,99.17
2022-10-05T02:07:35.871Z,99.04
2022-10-05T02:26:49.633Z,100
2022-10-05T02:46:02.946Z,100
2022-10-05T03:05:16.644Z,100
2022-10-05T03:24:30.236Z,100
2022-10-05T03:34:06.672Z,100
2022-10-05T03:43:43.338Z,100
2022-10-05T04:02:58.371Z,100
2022-10-05T04:22:11.950Z,100
2022-10-05T04:41:25.508Z,100
2022-10-05T05:00:40.731Z,100
2022-10-05T05:19:55.591Z,100
2022-10-05T05:39:10.168Z,100
2022-10-05T05:48:47.497Z,100
2022-10-05T05:58:24.999Z,100
2022-10-05T06:08:02.430Z,98.37
2022-10-05T06:17:40.446Z,96.18
2022-10-05T06:36:55.176Z,95.33
2022-10-05T06:46:33.177Z,92.24
2022-10-05T06:56:11.271Z,89.38
2022-10-05T07:15:27.711Z,84.97
2022-10-05T07:25:05.706Z,83.82
2022-10-05T07:34:43.546Z,81.57
2022-10-05T07:44:21.074Z,80.96
2022-10-05T07:53:58.864Z,81.04
2022-10-05T08:03:37.071Z,80.15
2022-10-05T08:13:15.133Z,80.59
2022-10-05T08:22:52.643Z,80.07
2022-10-05T08:32:30.133Z,79.24
2022-10-05T08:42:07.673Z,78.25
2022-10-05T08:51:46.218Z,75.83
2022-10-05T09:11:02.159Z,73.61
2022-10-05T09:30:18.373Z,71.53
2022-10-05T09:49:34.481Z,69.09
2022-10-05T10:08:50.574Z,63.58
2022-10-05T10:28:32.344Z,54.97
2022-10-05T10:38:21.045Z,50
2022-10-05T10:48:04.832Z,48.89
2022-10-05T11:07:30.007Z,45.04
2022-10-05T11:26:51.134Z,45.86
2022-10-05T11:46:03.687Z,47.02
2022-10-05T12:05:18.682Z,45.39
2022-10-05T12:24:37.328Z,44.18
2022-10-05T12:43:56.686Z,42.36
2022-10-05T13:03:09.535Z,43.63
2022-10-05T13:12:47.714Z,43.78
2022-10-05T13:22:24.275Z,43.51
2022-10-05T13:31:59.096Z,43.15
2022-10-05T13:41:35.755Z,40.85
2022-10-05T14:00:44.808Z,43.88
2022-10-05T14:10:10.880Z,46.97
2022-10-05T14:19:45.362Z,47.77
2022-10-05T14:39:05.622Z,50.58
2022-10-05T14:58:24.006Z,50.57
2022-10-05T15:17:32.568Z,50.3
2022-10-05T15:36:32.614Z,53.79
2022-10-05T15:55:42.102Z,57.72
2022-10-05T16:14:54.414Z,61.45
2022-10-05T16:34:06.910Z,66.91
2022-10-05T16:53:19.063Z,71.77
2022-10-05T17:02:55.583Z,74.93
2022-10-05T17:12:31.923Z,74.17
2022-10-05T17:31:44.784Z,79.12
2022-10-05T17:50:57.779Z,82.21
2022-10-05T18:10:12.058Z,82.28
2022-10-05T18:29:25.920Z,84.96
2022-10-05T18:39:03.352Z,86.11
2022-10-05T18:48:40.406Z,88.41
2022-10-05T18:58:17.706Z,84.22
2022-10-05T19:07:55.414Z,82.16
2022-10-05T19:17:33.606Z,78.09
2022-10-05T19:27:11.745Z,75.97
2022-10-05T19:36:49.287Z,75.68
2022-10-05T19:46:28.420Z,72.96
2022-10-05T20:05:44.143Z,73.66
2022-10-05T20:24:58.062Z,78.93
2022-10-05T20:44:10.464Z,84.66
2022-10-05T21:03:23.761Z,87.99
2022-10-05T21:22:37.201Z,91.41
2022-10-05T21:41:51.272Z,93.43
2022-10-05T22:01:05.534Z,94.5
2022-10-05T22:20:20.164Z,93.48
2022-10-05T22:39:34.570Z,95.16
2022-10-05T22:58:49.836Z,94.62
2022-10-05T23:18:04.237Z,94.1
2022-10-05T23:37:19.013Z,94.27
2022-10-05T23:56:33.239Z,93.93
